Observation data for Levelland on 02/15/2017      Previous  Date  Next       Current Mesonet Observations  Soil Data  Daily Summary Page  Observations in Plain Language
KLD1 150600Z 31009KT 00/M03 A302 RMK A01 T00031025  RH  083%=      5-min Rain = 0
KLD1 150605Z 31009KT 00/M03 A302 RMK A01 T00021025  RH  083%=      5-min Rain = 0
KLD1 150610Z 31009KT 00/M03 A302 RMK A01 T00021025  RH  083%=      5-min Rain = 0
KLD1 150615Z 31009KT 00/M03 A302 RMK A01 T00021025  RH  083%=      5-min Rain = 0
KLD1 150620Z 31009KT 00/M03 A302 RMK A01 T00021025  RH  083%=      5-min Rain = 0
KLD1 150625Z 31009KT 00/M03 A302 RMK A01 T00021025  RH  083%=      5-min Rain = 0
KLD1 150630Z 31009KT 00/M03 A302 RMK A01 T00011025  RH  083%=      5-min Rain = 0
KLD1 150635Z 31009KT 00/M03 A302 RMK A01 T00021025  RH  083%=      5-min Rain = 0
KLD1 150640Z 31009KT 00/M03 A302 RMK A01 T00021025  RH  083%=      5-min Rain = 0
KLD1 150645Z 31010KT 00/M03 A302 RMK A01 T00021025  RH  083%=      5-min Rain = 0
KLD1 150650Z 32009KT 00/M03 A302 RMK A01 T00021025  RH  083%=      5-min Rain = 0
KLD1 150655Z 32010KT 00/M03 A302 RMK A01 T00021025  RH  082%=      5-min Rain = 0
KLD1 150700Z 31010KT 00/M03 A302 RMK A01 T00031025  RH  082%=      5-min Rain = 0
KLD1 150705Z 31009KT 00/M03 A302 RMK A01 T00041026  RH  082%=      5-min Rain = 0
KLD1 150710Z 31009KT 00/M03 A302 RMK A01 T00041026  RH  081%=      5-min Rain = 0
KLD1 150715Z 31009KT 00/M03 A302 RMK A01 T00041026  RH  081%=      5-min Rain = 0
KLD1 150720Z 30009KT 00/M03 A302 RMK A01 T00031027  RH  081%=      5-min Rain = 0
KLD1 150725Z 30009KT 00/M03 A302 RMK A01 T00031027  RH  082%=      5-min Rain = 0
KLD1 150730Z 30008KT 00/M03 A302 RMK A01 T00021027  RH  082%=      5-min Rain = 0
KLD1 150735Z 30008KT 00/M03 A302 RMK A01 T00011028  RH  082%=      5-min Rain = 0
KLD1 150740Z 30007KT M00/M03 A302 RMK A01 T10011029  RH  082%=      5-min Rain = 0
KLD1 150745Z 30007KT M00/M03 A302 RMK A01 T10021029  RH  083%=      5-min Rain = 0
KLD1 150750Z 30007KT M00/M03 A302 RMK A01 T10031029  RH  083%=      5-min Rain = 0
KLD1 150755Z 30007KT M00/M03 A302 RMK A01 T10041030  RH  084%=      5-min Rain = 0
KLD1 150800Z 29007KT M01/M03 A3021 RMK A01 T10051030  RH  085%=      5-min Rain = 0
KLD1 150805Z 29007KT M01/M03 A3021 RMK A01 T10061030  RH  085%=      5-min Rain = 0
KLD1 150810Z 29007KT M01/M03 A3021 RMK A01 T10071030  RH  085%=      5-min Rain = 0
KLD1 150815Z 29008KT M01/M03 A3021 RMK A01 T10071030  RH  086%=      5-min Rain = 0
KLD1 150820Z 29008KT M01/M03 A3021 RMK A01 T10081030  RH  086%=      5-min Rain = 0
KLD1 150825Z 30008KT M01/M03 A3021 RMK A01 T10071030  RH  086%=      5-min Rain = 0
KLD1 150830Z 30008KT M01/M03 A3021 RMK A01 T10071029  RH  086%=      5-min Rain = 0
KLD1 150835Z 30008KT M01/M03 A3021 RMK A01 T10061028  RH  086%=      5-min Rain = 0
KLD1 150840Z 31008KT M01/M03 A3021 RMK A01 T10051028  RH  086%=      5-min Rain = 0
KLD1 150845Z 31007KT M01/M03 A302 RMK A01 T10051028  RH  086%=      5-min Rain = 0
KLD1 150850Z 31008KT M01/M03 A302 RMK A01 T10051028  RH  085%=      5-min Rain = 0
KLD1 150855Z 31008KT M01/M03 A302 RMK A01 T10051028  RH  086%=      5-min Rain = 0
KLD1 150900Z 31009KT M01/M03 A302 RMK A01 T10051027  RH  086%=      5-min Rain = 0
KLD1 150905Z 31009KT M01/M03 A302 RMK A01 T10051027  RH  086%=      5-min Rain = 0
KLD1 150910Z 31010KT M00/M03 A302 RMK A01 T10041026  RH  086%=      5-min Rain = 0
KLD1 150915Z 31010KT M00/M03 A302 RMK A01 T10041026  RH  086%=      5-min Rain = 0
KLD1 150920Z 31010KT M00/M03 A302 RMK A01 T10041026  RH  086%=      5-min Rain = 0
KLD1 150925Z 30011KT M00/M03 A302 RMK A01 T10041027  RH  085%=      5-min Rain = 0
KLD1 150930Z 30010KT M00/M03 A302 RMK A01 T10041027  RH  085%=      5-min Rain = 0
KLD1 150935Z 30010KT M00/M03 A302 RMK A01 T10041027  RH  085%=      5-min Rain = 0
KLD1 150940Z 30009KT M00/M03 A302 RMK A01 T10041028  RH  085%=      5-min Rain = 0
KLD1 150945Z 30008KT M00/M03 A302 RMK A01 T10041028  RH  085%=      5-min Rain = 0
KLD1 150950Z 30008KT M01/M03 A302 RMK A01 T10051029  RH  085%=      5-min Rain = 0
KLD1 150955Z 30008KT M01/M03 A302 RMK A01 T10061030  RH  085%=      5-min Rain = 0
KLD1 151000Z 30008KT M01/M03 A302 RMK A01 T10071030  RH  085%=      5-min Rain = 0
KLD1 151005Z 30008KT M01/M03 A302 RMK A01 T10061030  RH  085%=      5-min Rain = 0
KLD1 151010Z 30008KT M01/M03 A302 RMK A01 T10061030  RH  085%=      5-min Rain = 0
KLD1 151015Z 29008KT M01/M03 A302 RMK A01 T10071031  RH  085%=      5-min Rain = 0
KLD1 151020Z 29007KT M01/M03 A302 RMK A01 T10081032  RH  085%=      5-min Rain = 0
KLD1 151025Z 29008KT M01/M03 A302 RMK A01 T10091033  RH  085%=      5-min Rain = 0
KLD1 151030Z 29008KT M01/M03 A302 RMK A01 T10091033  RH  085%=      5-min Rain = 0
KLD1 151035Z 29008KT M01/M03 A302 RMK A01 T10091033  RH  085%=      5-min Rain = 0
KLD1 151040Z 29008KT M01/M03 A3021 RMK A01 T10091034  RH  085%=      5-min Rain = 0
KLD1 151045Z 29008KT M01/M03 A3021 RMK A01 T10091034  RH  085%=      5-min Rain = 0
KLD1 151050Z 29008KT M01/M03 A3021 RMK A01 T10091034  RH  084%=      5-min Rain = 0
KLD1 151055Z 29008KT M01/M03 A3021 RMK A01 T10091034  RH  084%=      5-min Rain = 0
KLD1 151100Z 29008KT M01/M04 A302 RMK A01 T10101035  RH  084%=      5-min Rain = 0
KLD1 151105Z 30008KT M01/M04 A302 RMK A01 T10111036  RH  084%=      5-min Rain = 0
KLD1 151110Z 30008KT M01/M04 A302 RMK A01 T10131037  RH  085%=      5-min Rain = 0
KLD1 151115Z 30008KT M01/M04 A3021 RMK A01 T10131037  RH  085%=      5-min Rain = 0
KLD1 151120Z 30008KT M01/M04 A3021 RMK A01 T10121035  RH  085%=      5-min Rain = 0
KLD1 151125Z 30009KT M01/M04 A3021 RMK A01 T10101035  RH  084%=      5-min Rain = 0
KLD1 151130Z 30009KT M01/M04 A3021 RMK A01 T10091036  RH  083%=      5-min Rain = 0
KLD1 151135Z 30009KT M01/M04 A3021 RMK A01 T10101036  RH  083%=      5-min Rain = 0
KLD1 151140Z 30008KT M01/M04 A3021 RMK A01 T10101036  RH  083%=      5-min Rain = 0
KLD1 151145Z 30007KT M01/M04 A3021 RMK A01 T10111037  RH  083%=      5-min Rain = 0
KLD1 151150Z 30007KT M01/M04 A3021 RMK A01 T10111037  RH  083%=      5-min Rain = 0
KLD1 151155Z 30008KT M01/M04 A3021 RMK A01 T10111037  RH  083%=      5-min Rain = 0
KLD1 151200Z 30008KT M01/M04 A3021 RMK A01 T10101037  RH  083%=      5-min Rain = 0
KLD1 151205Z 31008KT M01/M04 A3021 RMK A01 T10101037  RH  083%=      5-min Rain = 0
KLD1 151210Z 31008KT M01/M04 A3021 RMK A01 T10101037  RH  083%=      5-min Rain = 0
KLD1 151215Z 32007KT M01/M04 A3021 RMK A01 T10111038  RH  083%=      5-min Rain = 0
KLD1 151220Z 32007KT M01/M04 A3022 RMK A01 T10111037  RH  083%=      5-min Rain = 0
KLD1 151225Z 32008KT M01/M04 A3022 RMK A01 T10101037  RH  083%=      5-min Rain = 0
KLD1 151230Z 32008KT M01/M04 A3022 RMK A01 T10101038  RH  083%=      5-min Rain = 0
KLD1 151235Z 32009KT M01/M04 A3022 RMK A01 T10101038  RH  082%=      5-min Rain = 0
KLD1 151240Z 32009KT M01/M04 A3022 RMK A01 T10101038  RH  082%=      5-min Rain = 0
KLD1 151245Z 32009KT M01/M04 A3022 RMK A01 T10091038  RH  082%=      5-min Rain = 0
KLD1 151250Z 32008KT M01/M04 A3022 RMK A01 T10091038  RH  081%=      5-min Rain = 0
KLD1 151255Z 32008KT M01/M04 A3022 RMK A01 T10101039  RH  081%=      5-min Rain = 0
KLD1 151300Z 32009KT M01/M04 A3022 RMK A01 T10101039  RH  082%=      5-min Rain = 0
KLD1 151305Z 32008KT M01/M04 A3022 RMK A01 T10101039  RH  082%=      5-min Rain = 0
KLD1 151310Z 32009KT M01/M04 A3023 RMK A01 T10101039  RH  082%=      5-min Rain = 0
KLD1 151315Z 32009KT M01/M04 A3023 RMK A01 T10101039  RH  081%=      5-min Rain = 0
KLD1 151320Z 32009KT M01/M04 A3023 RMK A01 T10101039  RH  081%=      5-min Rain = 0
KLD1 151325Z 32009KT M01/M04 A3023 RMK A01 T10091040  RH  081%=      5-min Rain = 0
KLD1 151330Z 32010KT M01/M04 A3023 RMK A01 T10091040  RH  081%=      5-min Rain = 0
KLD1 151335Z 32010KT M01/M04 A3023 RMK A01 T10091040  RH  080%=      5-min Rain = 0
KLD1 151340Z 31009KT M01/M04 A3023 RMK A01 T10091040  RH  080%=      5-min Rain = 0
KLD1 151345Z 31009KT M01/M04 A3023 RMK A01 T10091040  RH  080%=      5-min Rain = 0
KLD1 151350Z 32009KT M01/M04 A3024 RMK A01 T10081039  RH  080%=      5-min Rain = 0
KLD1 151355Z 32009KT M01/M04 A3024 RMK A01 T10061038  RH  080%=      5-min Rain = 0
KLD1 151400Z 32009KT M01/M04 A3024 RMK A01 T10051038  RH  079%=      5-min Rain = 0
KLD1 151405Z 32009KT M00/M04 A3024 RMK A01 T10031037  RH  079%=      5-min Rain = 0
KLD1 151410Z 32009KT M00/M04 A3025 RMK A01 T10011036  RH  078%=      5-min Rain = 0
KLD1 151415Z 32009KT 00/M04 A3025 RMK A01 T00011035  RH  078%=      5-min Rain = 0
KLD1 151420Z 32008KT 00/M03 A3025 RMK A01 T00031034  RH  077%=      5-min Rain = 0
KLD1 151425Z 32008KT 00/M03 A3025 RMK A01 T00041033  RH  077%=      5-min Rain = 0
KLD1 151430Z 32008KT 01/M03 A3025 RMK A01 T00071031  RH  076%=      5-min Rain = 0
KLD1 151435Z 32008KT 01/M03 A3025 RMK A01 T00091031  RH  075%=      5-min Rain = 0
KLD1 151440Z 32007KT 01/M03 A3026 RMK A01 T00121030  RH  074%=      5-min Rain = 0
KLD1 151445Z 32008KT 02/M03 A3026 RMK A01 T00151028  RH  074%=      5-min Rain = 0
KLD1 151450Z 32008KT 02/M03 A3026 RMK A01 T00181027  RH  073%=      5-min Rain = 0
KLD1 151455Z 32008KT 02/M03 A3026 RMK A01 T00211027  RH  071%=      5-min Rain = 0
KLD1 151500Z 32008KT 02/M03 A3026 RMK A01 T00241026  RH  070%=      5-min Rain = 0
KLD1 151505Z 32009KT 03/M03 A3026 RMK A01 T00261027  RH  069%=      5-min Rain = 0
KLD1 151510Z 32008KT 03/M03 A3027 RMK A01 T00281026  RH  068%=      5-min Rain = 0
KLD1 151515Z 32008KT 03/M03 A3027 RMK A01 T00311025  RH  068%=      5-min Rain = 0
KLD1 151520Z 32008KT 03/M02 A3027 RMK A01 T00331024  RH  067%=      5-min Rain = 0
KLD1 151525Z 32008KT 04/M02 A3027 RMK A01 T00361023  RH  066%=      5-min Rain = 0
KLD1 151530Z 33008KT 04/M02 A3027 RMK A01 T00411021  RH  065%=      5-min Rain = 0
KLD1 151535Z 34009KT 05/M02 A3027 RMK A01 T00451022  RH  062%=      5-min Rain = 0
KLD1 151540Z 34010KT 05/M02 A3027 RMK A01 T00491023  RH  061%=      5-min Rain = 0
KLD1 151545Z 34010KT 05/M02 A3027 RMK A01 T00521022  RH  059%=      5-min Rain = 0
KLD1 151550Z 34008KT 05/M02 A3028 RMK A01 T00541020  RH  059%=      5-min Rain = 0
KLD1 151555Z 35009KT 06/M02 A3028 RMK A01 T00581019  RH  058%=      5-min Rain = 0
KLD1 151600Z 35009KT 06/M02 A3028 RMK A01 T00611021  RH  056%=      5-min Rain = 0
KLD1 151605Z 35010KT 06/M02 A3028 RMK A01 T00631023  RH  055%=      5-min Rain = 0
KLD1 151610Z 36010KT 06/M03 A3028 RMK A01 T00631025  RH  054%=      5-min Rain = 0
KLD1 151615Z 35010KT 06/M03 A3027 RMK A01 T00641027  RH  053%=      5-min Rain = 0
KLD1 151620Z 35009KT 07/M03 A3027 RMK A01 T00661026  RH  052%=      5-min Rain = 0
KLD1 151625Z 35008KT 07/M02 A3027 RMK A01 T00701022  RH  052%=      5-min Rain = 0
KLD1 151630Z 35009KT 07/M03 A3027 RMK A01 T00721025  RH  051%=      5-min Rain = 0
KLD1 151635Z 35008KT 07/M02 A3027 RMK A01 T00741022  RH  051%=      5-min Rain = 0
KLD1 151640Z 35008KT 08/M02 A3027 RMK A01 T00791023  RH  049%=      5-min Rain = 0
KLD1 151645Z 35007KT 08/M02 A3027 RMK A01 T00791020  RH  050%=      5-min Rain = 0
KLD1 151650Z 35007KT 08/M02 A3027 RMK A01 T00791022  RH  049%=      5-min Rain = 0
KLD1 151655Z 36008KT 08/M02 A3027 RMK A01 T00811024  RH  048%=      5-min Rain = 0
KLD1 151700Z 34008KT 08/M03 A3027 RMK A01 T00821025  RH  047%=      5-min Rain = 0
KLD1 151705Z 35009KT 08/M03 A3027 RMK A01 T00841027  RH  046%=      5-min Rain = 0
KLD1 151710Z 34007KT 09/M03 A3027 RMK A01 T00861025  RH  046%=      5-min Rain = 0
KLD1 151715Z 35008KT 09/M03 A3027 RMK A01 T00871027  RH  045%=      5-min Rain = 0
KLD1 151720Z 35007KT 09/M02 A3027 RMK A01 T00891024  RH  046%=      5-min Rain = 0
KLD1 151725Z 00008KT 09/M03 A3027 RMK A01 T00941032  RH  041%=      5-min Rain = 0
KLD1 151730Z 36008KT 10/M03 A3027 RMK A01 T00951030  RH  042%=      5-min Rain = 0
KLD1 151735Z 00009KT 10/M04 A3027 RMK A01 T00971035  RH  040%=      5-min Rain = 0
KLD1 151740Z 00009KT 10/M04 A3027 RMK A01 T00991038  RH  039%=      5-min Rain = 0
KLD1 151745Z 00008KT 10/M04 A3027 RMK A01 T00991038  RH  038%=      5-min Rain = 0
KLD1 151750Z 35009KT 10/M04 A3027 RMK A01 T00981041  RH  038%=      5-min Rain = 0
KLD1 151755Z 35008KT 10/M04 A3027 RMK A01 T01021040  RH  037%=      5-min Rain = 0
KLD1 151800Z 34008KT 11/M04 A3027 RMK A01 T01051038  RH  037%=      5-min Rain = 0
KLD1 151805Z 36008KT 11/M04 A3026 RMK A01 T01051043  RH  036%=      5-min Rain = 0
KLD1 151810Z 34008G13KT 10/M05 A3026 RMK A01 T01021049  RH  035%=      5-min Rain = 0
KLD1 151815Z 35007G12KT 10/M05 A3026 RMK A01 T01041047  RH  035%=      5-min Rain = 0
KLD1 151820Z 34006KT 11/M04 A3026 RMK A01 T01061043  RH  035%=      5-min Rain = 0
KLD1 151825Z 01006KT 11/M04 A3025 RMK A01 T01071041  RH  035%=      5-min Rain = 0
KLD1 151830Z 35006G11KT 11/M04 A3025 RMK A01 T01091042  RH  035%=      5-min Rain = 0
KLD1 151835Z 35007G12KT 11/M04 A3025 RMK A01 T01071041  RH  035%=      5-min Rain = 0
KLD1 151840Z 34006KT 11/M04 A3025 RMK A01 T01051044  RH  035%=      5-min Rain = 0
KLD1 151845Z 34006G11KT 11/M04 A3025 RMK A01 T01051044  RH  035%=      5-min Rain = 0
KLD1 151850Z 01007G12KT 11/M04 A3024 RMK A01 T01081044  RH  034%=      5-min Rain = 0
KLD1 151855Z 01008KT 11/M04 A3024 RMK A01 T01101041  RH  035%=      5-min Rain = 0
KLD1 151900Z 34006KT 11/M04 A3024 RMK A01 T01091042  RH  035%=      5-min Rain = 0
KLD1 151905Z 31005KT 11/M04 A3023 RMK A01 T01101043  RH  034%=      5-min Rain = 0
KLD1 151910Z 01008KT 12/M04 A3023 RMK A01 T01151037  RH  035%=      5-min Rain = 0
KLD1 151915Z 36009KT 12/M05 A3023 RMK A01 T01151045  RH  033%=      5-min Rain = 0
KLD1 151920Z 34005KT 11/M05 A3023 RMK A01 T01131046  RH  033%=      5-min Rain = 0
KLD1 151925Z 36006G13KT 11/M04 A3022 RMK A01 T01131044  RH  033%=      5-min Rain = 0
KLD1 151930Z 36009KT 12/M04 A3022 RMK A01 T01171044  RH  033%=      5-min Rain = 0
KLD1 151935Z 35005KT 12/M05 A3022 RMK A01 T01161049  RH  031%=      5-min Rain = 0
KLD1 151940Z 36004KT 12/M05 A3021 RMK A01 T01171047  RH  032%=      5-min Rain = 0
KLD1 151945Z 33003KT 12/M05 A3021 RMK A01 T01171046  RH  032%=      5-min Rain = 0
KLD1 151950Z 31007KT 12/M05 A3021 RMK A01 T01181054  RH  030%=      5-min Rain = 0
KLD1 151955Z 30007KT 12/M05 A302 RMK A01 T01181054  RH  030%=      5-min Rain = 0
KLD1 152000Z 32007G12KT 12/M05 A302 RMK A01 T01191052  RH  030%=      5-min Rain = 0
KLD1 152005Z 30008G14KT 12/M05 A302 RMK A01 T01211050  RH  030%=      5-min Rain = 0
KLD1 152010Z 30008G13KT 12/M05 A302 RMK A01 T01231053  RH  029%=      5-min Rain = 0
KLD1 152015Z 30008KT 12/M05 A302 RMK A01 T01231054  RH  029%=      5-min Rain = 0
KLD1 152020Z 30007KT 12/M05 A3019 RMK A01 T01231054  RH  029%=      5-min Rain = 0
KLD1 152025Z 30007KT 12/M06 A3019 RMK A01 T01241056  RH  028%=      5-min Rain = 0
KLD1 152030Z 34003G8KT 12/M06 A3019 RMK A01 T01231056  RH  028%=      5-min Rain = 0
KLD1 152035Z 34008KT 12/M06 A3019 RMK A01 T01241057  RH  028%=      5-min Rain = 0
KLD1 152040Z 34006KT 12/M06 A3018 RMK A01 T01231056  RH  028%=      5-min Rain = 0
KLD1 152045Z 31005KT 13/M05 A3018 RMK A01 T01261052  RH  029%=      5-min Rain = 0
KLD1 152050Z 33007KT 13/M05 A3018 RMK A01 T01271050  RH  029%=      5-min Rain = 0
KLD1 152055Z 33005KT 13/M05 A3018 RMK A01 T01261052  RH  029%=      5-min Rain = 0
KLD1 152100Z 35007KT 13/M05 A3018 RMK A01 T01281051  RH  029%=      5-min Rain = 0
KLD1 152105Z 34005KT 13/M06 A3018 RMK A01 T01271055  RH  028%=      5-min Rain = 0
KLD1 152110Z 34005G10KT 13/M05 A3017 RMK A01 T01281052  RH  028%=      5-min Rain = 0
KLD1 152115Z 36004KT 13/M05 A3017 RMK A01 T01281052  RH  028%=      5-min Rain = 0
KLD1 152120Z 30007KT 13/M05 A3017 RMK A01 T01281050  RH  029%=      5-min Rain = 0
KLD1 152125Z 28007KT 13/M05 A3017 RMK A01 T01281050  RH  029%=      5-min Rain = 0
KLD1 152130Z 25002KT 13/M05 A3017 RMK A01 T01251052  RH  029%=      5-min Rain = 0
KLD1 152135Z 26004KT 13/M05 A3017 RMK A01 T01281048  RH  029%=      5-min Rain = 0
KLD1 152140Z 30007G12KT 13/M05 A3017 RMK A01 T01281048  RH  029%=      5-min Rain = 0
KLD1 152145Z 32006KT 13/M05 A3017 RMK A01 T01261051  RH  029%=      5-min Rain = 0
KLD1 152150Z 32005KT 13/M05 A3016 RMK A01 T01251053  RH  029%=      5-min Rain = 0
KLD1 152155Z 28003KT 13/M05 A3016 RMK A01 T01251052  RH  029%=      5-min Rain = 0
KLD1 152200Z 30004G9KT 13/M05 A3016 RMK A01 T01281051  RH  029%=      5-min Rain = 0
KLD1 152205Z 25005G10KT 13/M05 A3016 RMK A01 T01281052  RH  029%=      5-min Rain = 0
KLD1 152210Z 31007KT 13/M05 A3016 RMK A01 T01291050  RH  029%=      5-min Rain = 0
KLD1 152215Z 31006KT 13/M05 A3016 RMK A01 T01291051  RH  028%=      5-min Rain = 0
KLD1 152220Z 33003KT 13/M05 A3015 RMK A01 T01321053  RH  028%=      5-min Rain = 0
KLD1 152225Z 31009G16KT 13/M05 A3015 RMK A01 T01301054  RH  028%=      5-min Rain = 0
KLD1 152230Z 32005KT 13/M06 A3015 RMK A01 T01281056  RH  028%=      5-min Rain = 0
KLD1 152235Z 29007KT 13/M05 A3015 RMK A01 T01291053  RH  028%=      5-min Rain = 0
KLD1 152240Z 28004G9KT 13/M05 A3015 RMK A01 T01291054  RH  028%=      5-min Rain = 0
KLD1 152245Z 27004KT 13/M05 A3015 RMK A01 T01291054  RH  028%=      5-min Rain = 0
KLD1 152250Z 27003G8KT 13/M05 A3015 RMK A01 T01291054  RH  028%=      5-min Rain = 0
KLD1 152255Z 26005KT 13/M05 A3014 RMK A01 T01301052  RH  028%=      5-min Rain = 0
KLD1 152300Z 26008KT 13/M05 A3014 RMK A01 T01291052  RH  028%=      5-min Rain = 0
KLD1 152305Z 26006KT 13/M05 A3014 RMK A01 T01271054  RH  028%=      5-min Rain = 0
KLD1 152310Z 27005KT 13/M05 A3014 RMK A01 T01271052  RH  029%=      5-min Rain = 0
KLD1 152315Z 21005KT 13/M05 A3014 RMK A01 T01271053  RH  028%=      5-min Rain = 0
KLD1 152320Z 20004KT 13/M05 A3014 RMK A01 T01261051  RH  029%=      5-min Rain = 0
KLD1 152325Z 29005KT 13/M05 A3014 RMK A01 T01271054  RH  028%=      5-min Rain = 0
KLD1 152330Z 30005KT 13/M06 A3014 RMK A01 T01261056  RH  028%=      5-min Rain = 0
KLD1 152335Z 29006KT 13/M06 A3014 RMK A01 T01251055  RH  028%=      5-min Rain = 0
KLD1 152340Z 30005KT 13/M06 A3013 RMK A01 T01251055  RH  028%=      5-min Rain = 0
KLD1 152345Z 24005KT 12/M05 A3013 RMK A01 T01241049  RH  030%=      5-min Rain = 0
KLD1 152350Z 24005KT 12/M05 A3013 RMK A01 T01221050  RH  030%=      5-min Rain = 0
KLD1 152355Z 23005KT 12/M05 A3013 RMK A01 T01211049  RH  031%=      5-min Rain = 0
KLD1 160000Z 25004KT 12/M04 A3013 RMK A01 T01201044  RH  032%=      5-min Rain = 0
KLD1 160005Z 25005KT 12/M04 A3013 RMK A01 T01191041  RH  033%=      5-min Rain = 0
KLD1 160010Z 25005KT 12/M03 A3013 RMK A01 T01151034  RH  035%=      5-min Rain = 0
KLD1 160015Z 25006KT 11/M03 A3013 RMK A01 T01101033  RH  037%=      5-min Rain = 0
KLD1 160020Z 25005KT 11/M04 A3013 RMK A01 T01061036  RH  037%=      5-min Rain = 0
KLD1 160025Z 25005KT 10/M04 A3013 RMK A01 T01031036  RH  038%=      5-min Rain = 0
KLD1 160030Z 24004KT 10/M03 A3013 RMK A01 T01001029  RH  041%=      5-min Rain = 0
KLD1 160035Z 25005KT 10/M03 A3013 RMK A01 T00981026  RH  042%=      5-min Rain = 0
KLD1 160040Z 26004KT 09/M02 A3013 RMK A01 T00931024  RH  044%=      5-min Rain = 0
KLD1 160045Z 25004KT 09/M02 A3013 RMK A01 T00901022  RH  046%=      5-min Rain = 0
KLD1 160050Z 25003KT 09/M02 A3013 RMK A01 T00901022  RH  046%=      5-min Rain = 0
KLD1 160055Z 24004KT 09/M03 A3013 RMK A01 T00911026  RH  044%=      5-min Rain = 0
KLD1 160100Z 24004KT 09/M03 A3013 RMK A01 T00901028  RH  044%=      5-min Rain = 0
KLD1 160105Z 25004KT 09/M04 A3013 RMK A01 T00901036  RH  041%=      5-min Rain = 0
KLD1 160110Z 24004KT 09/M03 A3013 RMK A01 T00891029  RH  044%=      5-min Rain = 0
KLD1 160115Z 22005KT 08/M02 A3013 RMK A01 T00781017  RH  052%=      5-min Rain = 0
KLD1 160120Z 21004KT 07/M02 A3013 RMK A01 T00731015  RH  054%=      5-min Rain = 0
KLD1 160125Z 21004KT 07/M01 A3013 RMK A01 T00731013  RH  055%=      5-min Rain = 0
KLD1 160130Z 21005KT 07/M01 A3013 RMK A01 T00681013  RH  057%=      5-min Rain = 0
KLD1 160135Z 21005KT 07/M02 A3013 RMK A01 T00691016  RH  055%=      5-min Rain = 0
KLD1 160140Z 21005KT 07/M02 A3013 RMK A01 T00671016  RH  056%=      5-min Rain = 0
KLD1 160145Z 21005KT 07/M02 A3013 RMK A01 T00661016  RH  057%=      5-min Rain = 0
KLD1 160150Z 20006KT 06/M01 A3013 RMK A01 T00631014  RH  059%=      5-min Rain = 0
KLD1 160155Z 19006KT 06/M01 A3013 RMK A01 T00581011  RH  062%=      5-min Rain = 0
KLD1 160200Z 19007KT 05/M01 A3013 RMK A01 T00541010  RH  064%=      5-min Rain = 0
KLD1 160205Z 20007KT 05/M01 A3013 RMK A01 T00521011  RH  065%=      5-min Rain = 0
KLD1 160210Z 20006KT 05/M01 A3013 RMK A01 T00521012  RH  064%=      5-min Rain = 0
KLD1 160215Z 20007KT 05/M01 A3013 RMK A01 T00531013  RH  063%=      5-min Rain = 0
KLD1 160220Z 20007KT 05/M01 A3013 RMK A01 T00521013  RH  064%=      5-min Rain = 0
KLD1 160225Z 20008KT 05/M01 A3013 RMK A01 T00501014  RH  064%=      5-min Rain = 0
KLD1 160230Z 20007KT 05/M01 A3013 RMK A01 T00501014  RH  064%=      5-min Rain = 0
KLD1 160235Z 20008KT 05/M02 A3013 RMK A01 T00511015  RH  063%=      5-min Rain = 0
KLD1 160240Z 20008KT 05/M02 A3013 RMK A01 T00521017  RH  062%=      5-min Rain = 0
KLD1 160245Z 20008KT 05/M02 A3013 RMK A01 T00521019  RH  061%=      5-min Rain = 0
KLD1 160250Z 20008KT 05/M02 A3013 RMK A01 T00511019  RH  061%=      5-min Rain = 0
KLD1 160255Z 20009KT 05/M02 A3013 RMK A01 T00521021  RH  060%=      5-min Rain = 0
KLD1 160300Z 20009KT 05/M02 A3013 RMK A01 T00531021  RH  060%=      5-min Rain = 0
KLD1 160305Z 20008KT 05/M02 A3013 RMK A01 T00531021  RH  060%=      5-min Rain = 0
KLD1 160310Z 20008KT 05/M02 A3013 RMK A01 T00511020  RH  061%=      5-min Rain = 0
KLD1 160315Z 20008KT 05/M02 A3013 RMK A01 T00491020  RH  062%=      5-min Rain = 0
KLD1 160320Z 20008KT 05/M02 A3014 RMK A01 T00481020  RH  062%=      5-min Rain = 0
KLD1 160325Z 19008KT 05/M02 A3014 RMK A01 T00481021  RH  062%=      5-min Rain = 0
KLD1 160330Z 19008KT 05/M02 A3014 RMK A01 T00491022  RH  061%=      5-min Rain = 0
KLD1 160335Z 20008KT 05/M02 A3014 RMK A01 T00491021  RH  061%=      5-min Rain = 0
KLD1 160340Z 20008KT 05/M02 A3014 RMK A01 T00471021  RH  062%=      5-min Rain = 0
KLD1 160345Z 21007KT 04/M02 A3014 RMK A01 T00431020  RH  064%=      5-min Rain = 0
KLD1 160350Z 21008KT 04/M02 A3014 RMK A01 T00421020  RH  065%=      5-min Rain = 0
KLD1 160355Z 21008KT 04/M02 A3014 RMK A01 T00401020  RH  066%=      5-min Rain = 0
KLD1 160400Z 21008KT 04/M02 A3014 RMK A01 T00401019  RH  066%=      5-min Rain = 0
KLD1 160405Z 21008KT 04/M02 A3014 RMK A01 T00381019  RH  067%=      5-min Rain = 0
KLD1 160410Z 21008KT 04/M02 A3014 RMK A01 T00371019  RH  068%=      5-min Rain = 0
KLD1 160415Z 21008KT 04/M02 A3014 RMK A01 T00361021  RH  067%=      5-min Rain = 0
KLD1 160420Z 21007KT 03/M02 A3014 RMK A01 T00341021  RH  068%=      5-min Rain = 0
KLD1 160425Z 21007KT 03/M02 A3014 RMK A01 T00321021  RH  069%=      5-min Rain = 0
KLD1 160430Z 22007KT 03/M02 A3014 RMK A01 T00301022  RH  069%=      5-min Rain = 0
KLD1 160435Z 21007KT 03/M02 A3014 RMK A01 T00281022  RH  070%=      5-min Rain = 0
KLD1 160440Z 21007KT 03/M02 A3014 RMK A01 T00281022  RH  071%=      5-min Rain = 0
KLD1 160445Z 21007KT 03/M02 A3014 RMK A01 T00261022  RH  071%=      5-min Rain = 0
KLD1 160450Z 22007KT 03/M02 A3014 RMK A01 T00271023  RH  070%=      5-min Rain = 0
KLD1 160455Z 21007KT 03/M02 A3014 RMK A01 T00281023  RH  070%=      5-min Rain = 0
KLD1 160500Z 22007KT 03/M02 A3014 RMK A01 T00271024  RH  070%=      5-min Rain = 0
KLD1 160505Z 22007KT 03/M02 A3014 RMK A01 T00261024  RH  071%=      5-min Rain = 0
KLD1 160510Z 22007KT 02/M02 A3014 RMK A01 T00241024  RH  071%=      5-min Rain = 0
KLD1 160515Z 23007KT 02/M02 A3013 RMK A01 T00231024  RH  072%=      5-min Rain = 0
KLD1 160520Z 23007KT 02/M02 A3013 RMK A01 T00211024  RH  073%=      5-min Rain = 0
KLD1 160525Z 23007KT 02/M03 A3013 RMK A01 T00211025  RH  072%=      5-min Rain = 0
KLD1 160530Z 23007KT 02/M03 A3013 RMK A01 T00211025  RH  072%=      5-min Rain = 0
KLD1 160535Z 23007KT 02/M03 A3013 RMK A01 T00211025  RH  073%=      5-min Rain = 0
KLD1 160540Z 23007KT 02/M03 A3013 RMK A01 T00191025  RH  074%=      5-min Rain = 0
KLD1 160545Z 23008KT 02/M02 A3013 RMK A01 T00191024  RH  074%=      5-min Rain = 0
KLD1 160550Z 22007KT 02/M02 A3013 RMK A01 T00201024  RH  074%=      5-min Rain = 0
KLD1 160555Z 22007KT 02/M03 A3013 RMK A01 T00191025  RH  073%=      5-min Rain = 0

Page generated in 0.0099 seconds.